Time;durP1;ratioP1;P1;durP2;ratioP2;P2;SDS_P1;SDS_P2;PMS_P1;PMS_P2;Temp;Humidity;BMP_temperature;BMP_pressure;BME280_temperature;BME280_humidity;BME280_pressure;Samples;Min_cycle;Max_cycle;Signal;HPM_P1;HPM_P2
2024/01/15 00:01:49;;;;;;;9.20;1.50;;;;;;;;;;5093362;28;20250;-27
2024/01/15 00:04:14;;;;;;;5.68;1.30;;;;;;;;;;5093174;28;20012;-27
2024/01/15 00:06:39;;;;;;;14.13;2.27;;;;;;;;;;5093024;28;20513;-27
2024/01/15 00:09:06;;;;;;;17.90;3.17;;;;;;;;;;5093660;28;20344;-27
2024/01/15 00:11:31;;;;;;;8.95;1.60;;;;;;;;;;5093237;28;20678;-27
2024/01/15 00:13:57;;;;;;;11.20;1.90;;;;;;;;;;5092998;28;20107;-27
2024/01/15 00:16:22;;;;;;;8.27;1.90;;;;;;;;;;5093011;28;20039;-27
2024/01/15 00:18:47;;;;;;;12.60;1.70;;;;;;;;;;5093551;28;20255;-27
2024/01/15 00:21:12;;;;;;;13.23;1.48;;;;;;;;;;5092899;28;20069;-27
2024/01/15 00:23:39;;;;;;;9.30;1.87;;;;;;;;;;5092989;28;20012;-27
2024/01/15 00:26:05;;;;;;;9.75;1.52;;;;;;;;;;5093147;28;20254;-27
2024/01/15 00:28:30;;;;;;;13.20;1.80;;;;;;;;;;5092962;28;20485;-27
2024/01/15 00:30:55;;;;;;;12.07;2.17;;;;;;;;;;5096269;28;20265;-27
2024/01/15 00:33:20;;;;;;;11.30;1.70;;;;;;;;;;5096538;28;20288;-28
2024/01/15 00:35:46;;;;;;;12.00;2.00;;;;;;;;;;5096737;28;20251;-27
2024/01/15 00:38:11;;;;;;;11.30;1.70;;;;;;;;;;5096276;28;20532;-27
2024/01/15 00:40:37;;;;;;;16.38;1.80;;;;;;;;;;5096438;28;20027;-27
2024/01/15 00:43:02;;;;;;;15.85;1.63;;;;;;;;;;5096353;28;20019;-27
2024/01/15 00:45:27;;;;;;;12.55;2.10;;;;;;;;;;5096832;28;20008;-27
2024/01/15 00:47:53;;;;;;;9.45;1.50;;;;;;;;;;5096423;28;20050;-27
2024/01/15 00:50:18;;;;;;;11.77;1.52;;;;;;;;;;5096392;28;20367;-28
2024/01/15 00:52:43;;;;;;;11.05;1.48;;;;;;;;;;5096161;28;20020;-27
2024/01/15 00:55:08;;;;;;;5.85;1.88;;;;;;;;;;5096659;28;20035;-27
2024/01/15 00:57:33;;;;;;;13.40;2.20;;;;;;;;;;5095943;28;20424;-27
2024/01/15 00:59:58;;;;;;;13.97;1.70;;;;;;;;;;5096509;28;20100;-27
2024/01/15 01:02:24;;;;;;;7.75;1.08;;;;;;;;;;5095921;28;20303;-27
2024/01/15 01:04:49;;;;;;;24.30;2.07;;;;;;;;;;5096100;28;20024;-27
2024/01/15 01:07:14;;;;;;;8.20;1.58;;;;;;;;;;5095635;28;20365;-27
2024/01/15 01:09:39;;;;;;;11.13;1.38;;;;;;;;;;5095986;28;20470;-28
2024/01/15 01:12:05;;;;;;;12.82;1.38;;;;;;;;;;5095670;28;20020;-27
2024/01/15 01:14:30;;;;;;;9.40;1.33;;;;;;;;;;5095707;28;20031;-27
2024/01/15 01:16:55;;;;;;;11.10;1.70;;;;;;;;;;5095898;28;20021;-27
2024/01/15 01:19:20;;;;;;;12.03;1.47;;;;;;;;;;5095640;28;20246;-27
2024/01/15 01:21:45;;;;;;;9.05;1.27;;;;;;;;;;5096133;28;20238;-27
2024/01/15 01:24:11;;;;;;;11.30;1.63;;;;;;;;;;5095404;28;20379;-27
2024/01/15 01:26:36;;;;;;;11.90;2.37;;;;;;;;;;5096114;28;20250;-27
2024/01/15 01:29:01;;;;;;;8.47;1.43;;;;;;;;;;5095461;28;20601;-27
2024/01/15 01:31:26;;;;;;;17.02;1.80;;;;;;;;;;5095423;28;20250;-28
2024/01/15 01:33:52;;;;;;;14.95;1.40;;;;;;;;;;5095612;28;20467;-27
2024/01/15 01:36:17;;;;;;;17.20;2.35;;;;;;;;;;5096023;28;20081;-27
2024/01/15 01:38:42;;;;;;;11.90;1.55;;;;;;;;;;5095260;28;20043;-28
2024/01/15 01:41:07;;;;;;;5.82;1.25;;;;;;;;;;5095083;28;20016;-28
2024/01/15 01:43:33;;;;;;;20.65;1.58;;;;;;;;;;5095186;28;20482;-27
2024/01/15 01:45:59;;;;;;;11.15;1.52;;;;;;;;;;5095145;28;20152;-27
2024/01/15 01:48:25;;;;;;;13.40;1.42;;;;;;;;;;5095575;28;20103;-27
2024/01/15 01:50:51;;;;;;;11.43;1.42;;;;;;;;;;5095235;28;20412;-27
2024/01/15 01:53:16;;;;;;;7.68;1.67;;;;;;;;;;5095033;28;20085;-27
2024/01/15 01:55:41;;;;;;;9.10;1.60;;;;;;;;;;5094960;28;20058;-28
2024/01/15 01:58:07;;;;;;;9.20;1.88;;;;;;;;;;5094841;28;20078;-28
2024/01/15 02:00:33;;;;;;;8.98;1.30;;;;;;;;;;5095420;28;20073;-28
2024/01/15 02:02:58;;;;;;;5.32;1.27;;;;;;;;;;5095315;28;20022;-28
2024/01/15 02:05:23;;;;;;;8.35;1.25;;;;;;;;;;5094711;28;20036;-28
2024/01/15 02:07:48;;;;;;;5.90;1.10;;;;;;;;;;5095274;28;20047;-27
2024/01/15 02:10:14;;;;;;;6.65;1.20;;;;;;;;;;5095165;28;20051;-28
2024/01/15 02:12:39;;;;;;;7.53;0.57;;;;;;;;;;5094765;28;20108;-27
2024/01/15 02:15:04;;;;;;;7.00;1.02;;;;;;;;;;5094487;28;20028;-27
2024/01/15 02:17:29;;;;;;;5.65;0.73;;;;;;;;;;5094548;28;20028;-27
2024/01/15 02:19:55;;;;;;;3.70;0.60;;;;;;;;;;5095005;28;20020;-27
2024/01/15 02:22:20;;;;;;;2.15;0.60;;;;;;;;;;5094314;28;20392;-27
2024/01/15 02:24:45;;;;;;;7.23;1.13;;;;;;;;;;5094964;28;20016;-27
2024/01/15 02:27:10;;;;;;;2.60;0.70;;;;;;;;;;5094340;28;20304;-27
2024/01/15 02:29:36;;;;;;;2.10;0.60;;;;;;;;;;5094601;28;20103;-27
2024/01/15 02:32:04;;;;;;;5.47;0.47;;;;;;;;;;5094231;28;20099;-27
2024/01/15 02:34:31;;;;;;;7.25;0.73;;;;;;;;;;5094210;28;20019;-27
2024/01/15 02:36:56;;;;;;;5.65;1.00;;;;;;;;;;5094099;28;20122;-28
2024/01/15 02:39:21;;;;;;;9.10;1.50;;;;;;;;;;5094173;28;20419;-27
2024/01/15 02:41:46;;;;;;;6.20;0.98;;;;;;;;;;5094599;28;20263;-27
2024/01/15 02:44:12;;;;;;;6.22;0.80;;;;;;;;;;5094027;28;20046;-27
2024/01/15 02:46:37;;;;;;;4.10;0.90;;;;;;;;;;5094239;28;20058;-27
2024/01/15 02:49:02;;;;;;;12.00;1.20;;;;;;;;;;5094517;28;20095;-27
2024/01/15 02:51:27;;;;;;;3.92;0.82;;;;;;;;;;5094203;28;20250;-27
2024/01/15 02:53:52;;;;;;;9.25;1.60;;;;;;;;;;5093103;28;20027;-27
2024/01/15 02:56:17;;;;;;;7.93;1.23;;;;;;;;;;5093773;28;20028;-27
2024/01/15 02:58:43;;;;;;;6.40;0.80;;;;;;;;;;5094091;28;20725;-27
2024/01/15 03:01:08;;;;;;;11.63;1.48;;;;;;;;;;5094270;28;20027;-27
2024/01/15 03:03:33;;;;;;;10.07;1.20;;;;;;;;;;5093763;28;20416;-27
2024/01/15 03:05:58;;;;;;;8.25;0.93;;;;;;;;;;5093741;28;20282;-27
2024/01/15 03:08:23;;;;;;;7.38;1.25;;;;;;;;;;5093937;28;20402;-27
2024/01/15 03:10:49;;;;;;;4.80;0.88;;;;;;;;;;5093678;28;20081;-27
2024/01/15 03:13:14;;;;;;;9.02;1.17;;;;;;;;;;5075393;28;20020;-27
2024/01/15 03:15:39;;;;;;;9.23;1.15;;;;;;;;;;5093856;28;20459;-27
2024/01/15 03:18:04;;;;;;;5.75;0.98;;;;;;;;;;5093468;28;20459;-27
2024/01/15 03:20:30;;;;;;;8.93;1.80;;;;;;;;;;5093509;28;20470;-28
2024/01/15 03:22:55;;;;;;;7.80;1.02;;;;;;;;;;5093539;28;20024;-27
2024/01/15 03:25:20;;;;;;;3.50;0.80;;;;;;;;;;5094051;28;20092;-28
2024/01/15 03:27:45;;;;;;;13.70;1.23;;;;;;;;;;5093388;28;20307;-27
2024/01/15 03:30:11;;;;;;;6.50;0.97;;;;;;;;;;5094024;28;20020;-27
2024/01/15 03:32:36;;;;;;;9.80;1.40;;;;;;;;;;5093541;28;20309;-27
2024/01/15 03:35:01;;;;;;;7.90;1.15;;;;;;;;;;5093666;28;20059;-29
2024/01/15 03:37:27;;;;;;;5.67;1.23;;;;;;;;;;5093353;28;20024;-27
2024/01/15 03:39:52;;;;;;;4.07;0.90;;;;;;;;;;5093893;28;20254;-27
2024/01/15 03:42:17;;;;;;;4.30;0.83;;;;;;;;;;5093337;28;20242;-28
2024/01/15 03:44:42;;;;;;;5.33;1.03;;;;;;;;;;5093321;28;20254;-27
2024/01/15 03:47:07;;;;;;;7.13;1.07;;;;;;;;;;5093237;28;20643;-27
2024/01/15 03:49:32;;;;;;;3.33;1.00;;;;;;;;;;5093414;28;20356;-27
2024/01/15 03:51:58;;;;;;;3.53;0.65;;;;;;;;;;5093754;28;20042;-27
2024/01/15 03:54:23;;;;;;;6.50;0.80;;;;;;;;;;5093682;28;20024;-28
2024/01/15 03:56:48;;;;;;;3.87;0.60;;;;;;;;;;5092979;28;20530;-27
2024/01/15 03:59:13;;;;;;;5.43;0.90;;;;;;;;;;5093710;28;20261;-28
2024/01/15 04:01:38;;;;;;;6.63;1.30;;;;;;;;;;5093579;28;20020;-27
2024/01/15 04:04:03;;;;;;;6.63;1.13;;;;;;;;;;5093161;28;20030;-27
2024/01/15 04:06:29;;;;;;;10.95;1.17;;;;;;;;;;5097000;28;20313;-27
2024/01/15 04:08:54;;;;;;;4.07;0.82;;;;;;;;;;5097345;28;20472;-27
2024/01/15 04:11:19;;;;;;;3.67;0.75;;;;;;;;;;5096943;28;20020;-27
2024/01/15 04:13:44;;;;;;;6.45;1.10;;;;;;;;;;5097493;28;20012;-27
2024/01/15 04:16:09;;;;;;;6.55;1.35;;;;;;;;;;5096868;28;20031;-28
2024/01/15 04:18:35;;;;;;;8.15;0.85;;;;;;;;;;5096888;28;20017;-28
2024/01/15 04:21:00;;;;;;;11.85;1.35;;;;;;;;;;5096750;28;20020;-27
2024/01/15 04:23:25;;;;;;;7.35;1.10;;;;;;;;;;5097298;28;20023;-28
2024/01/15 04:25:50;;;;;;;12.43;1.67;;;;;;;;;;5097202;28;20050;-27
2024/01/15 04:28:15;;;;;;;5.80;0.77;;;;;;;;;;5096715;28;20330;-28
2024/01/15 04:30:40;;;;;;;7.47;1.13;;;;;;;;;;5096618;28;20281;-27
2024/01/15 04:33:06;;;;;;;5.75;0.73;;;;;;;;;;5096849;28;20258;-27
2024/01/15 04:35:31;;;;;;;6.22;1.02;;;;;;;;;;5096577;28;20100;-28
2024/01/15 04:37:56;;;;;;;4.60;0.75;;;;;;;;;;5096461;28;20035;-27
2024/01/15 04:40:21;;;;;;;6.00;0.75;;;;;;;;;;5096155;28;20012;-28
2024/01/15 04:42:47;;;;;;;3.65;0.85;;;;;;;;;;5096902;28;20019;-27
2024/01/15 04:45:12;;;;;;;7.07;0.80;;;;;;;;;;5096656;28;20061;-27
2024/01/15 04:47:37;;;;;;;3.60;0.70;;;;;;;;;;5096906;28;20085;-27
2024/01/15 04:50:03;;;;;;;5.03;0.83;;;;;;;;;;5096340;28;20020;-28
2024/01/15 04:52:28;;;;;;;4.22;0.90;;;;;;;;;;5095954;28;20257;-27
2024/01/15 04:54:53;;;;;;;7.77;1.07;;;;;;;;;;5095960;28;20024;-27
2024/01/15 04:57:19;;;;;;;6.15;0.77;;;;;;;;;;5077195;28;20318;-27
2024/01/15 04:59:44;;;;;;;7.67;0.87;;;;;;;;;;5096668;28;20019;-27
2024/01/15 05:02:09;;;;;;;6.23;0.63;;;;;;;;;;5096022;28;20737;-28
2024/01/15 05:04:34;;;;;;;10.90;1.17;;;;;;;;;;5096007;28;20278;-27
2024/01/15 05:06:59;;;;;;;1.83;0.60;;;;;;;;;;5095752;28;20381;-28
2024/01/15 05:09:24;;;;;;;6.33;1.07;;;;;;;;;;5096447;28;20253;-27
2024/01/15 05:11:50;;;;;;;3.95;1.15;;;;;;;;;;5095777;28;20262;-27
2024/01/15 05:14:15;;;;;;;8.63;1.10;;;;;;;;;;5096358;28;20092;-27
2024/01/15 05:16:46;;;;;;;7.47;2.50;;;;;;;;;;5094697;28;20290;-27
2024/01/15 05:19:11;;;;;;;9.55;2.53;;;;;;;;;;5096292;28;20285;-27
2024/01/15 05:21:37;;;;;;;7.10;2.33;;;;;;;;;;5095693;28;20044;-27
2024/01/15 05:24:02;;;;;;;7.63;2.40;;;;;;;;;;5095605;28;20280;-27
2024/01/15 05:26:27;;;;;;;9.55;1.98;;;;;;;;;;5095598;28;20254;-27
2024/01/15 05:28:52;;;;;;;9.20;1.50;;;;;;;;;;5095568;28;20491;-27
2024/01/15 05:31:17;;;;;;;5.30;1.33;;;;;;;;;;5095536;28;20262;-27
2024/01/15 05:33:42;;;;;;;11.17;1.10;;;;;;;;;;5095429;28;20057;-28
2024/01/15 05:36:08;;;;;;;3.03;0.90;;;;;;;;;;5095396;28;20250;-27
2024/01/15 05:38:33;;;;;;;4.35;0.80;;;;;;;;;;5095290;28;20027;-27
2024/01/15 05:40:58;;;;;;;6.72;1.30;;;;;;;;;;5095170;28;20016;-27
2024/01/15 05:43:23;;;;;;;5.00;0.88;;;;;;;;;;5095586;28;20023;-27
2024/01/15 05:45:48;;;;;;;4.17;0.97;;;;;;;;;;5095337;28;20417;-28
2024/01/15 05:48:14;;;;;;;6.45;0.90;;;;;;;;;;5095225;28;20290;-28
2024/01/15 05:50:39;;;;;;;9.10;1.40;;;;;;;;;;5095797;28;20024;-28
2024/01/15 05:53:04;;;;;;;5.85;0.88;;;;;;;;;;5094972;28;20046;-27
2024/01/15 05:55:29;;;;;;;3.35;0.95;;;;;;;;;;5076951;28;20027;-28
2024/01/15 05:57:55;;;;;;;5.30;1.52;;;;;;;;;;5094986;28;20059;-27
2024/01/15 06:00:20;;;;;;;5.47;1.00;;;;;;;;;;5095014;28;20103;-28
2024/01/15 06:02:45;;;;;;;6.88;1.70;;;;;;;;;;5094982;28;20433;-29
2024/01/15 06:05:11;;;;;;;10.15;2.08;;;;;;;;;;5076611;28;20483;-28
2024/01/15 06:07:36;;;;;;;3.75;1.10;;;;;;;;;;5095400;28;20519;-27
2024/01/15 06:10:02;;;;;;;6.60;1.52;;;;;;;;;;5095414;28;20451;-27
2024/01/15 06:12:27;;;;;;;8.95;1.75;;;;;;;;;;5094973;28;20099;-28
2024/01/15 06:14:53;;;;;;;8.25;1.70;;;;;;;;;;5094697;28;20020;-28
2024/01/15 06:17:18;;;;;;;10.15;1.75;;;;;;;;;;5094602;28;20043;-28
2024/01/15 06:19:44;;;;;;;5.55;1.80;;;;;;;;;;5094869;28;20012;-28
2024/01/15 06:22:09;;;;;;;7.00;1.55;;;;;;;;;;5094864;28;20013;-28
2024/01/15 06:24:34;;;;;;;6.38;2.20;;;;;;;;;;5094484;28;20070;-27
2024/01/15 06:26:59;;;;;;;7.03;1.70;;;;;;;;;;5094717;28;20024;-28
2024/01/15 06:29:25;;;;;;;3.10;1.17;;;;;;;;;;5094438;28;20066;-28
2024/01/15 06:31:50;;;;;;;4.43;1.38;;;;;;;;;;5094644;28;20065;-28
2024/01/15 06:34:16;;;;;;;6.40;1.60;;;;;;;;;;5094936;28;20415;-28
2024/01/15 06:36:41;;;;;;;11.02;1.90;;;;;;;;;;5075941;28;20531;-28
2024/01/15 06:39:06;;;;;;;3.92;1.65;;;;;;;;;;5094581;28;20016;-28
2024/01/15 06:41:32;;;;;;;9.60;2.28;;;;;;;;;;5094232;28;20379;-28
2024/01/15 06:43:57;;;;;;;12.73;2.17;;;;;;;;;;5094226;28;20020;-28
2024/01/15 06:46:22;;;;;;;6.60;2.50;;;;;;;;;;5094475;28;20375;-28
2024/01/15 06:48:48;;;;;;;5.38;1.98;;;;;;;;;;5094133;28;20053;-28
2024/01/15 06:51:13;;;;;;;6.80;1.60;;;;;;;;;;5094085;28;20023;-28
2024/01/15 06:53:38;;;;;;;8.98;1.95;;;;;;;;;;5094067;28;20016;-28
2024/01/15 06:56:04;;;;;;;7.88;2.10;;;;;;;;;;5093970;28;20016;-28
2024/01/15 06:58:30;;;;;;;7.97;2.75;;;;;;;;;;5075612;28;20031;-28
2024/01/15 07:00:56;;;;;;;9.52;2.00;;;;;;;;;;5094016;28;20026;-28
2024/01/15 07:03:21;;;;;;;7.87;1.40;;;;;;;;;;5094434;28;20106;-27
2024/01/15 07:05:46;;;;;;;8.18;1.77;;;;;;;;;;5075670;28;20749;-28
2024/01/15 07:08:11;;;;;;;5.05;1.63;;;;;;;;;;5093861;28;20075;-28
2024/01/15 07:10:37;;;;;;;3.83;1.40;;;;;;;;;;5093794;28;20016;-28
2024/01/15 07:13:02;;;;;;;5.03;1.80;;;;;;;;;;5075598;28;20348;-28
2024/01/15 07:15:27;;;;;;;6.30;1.63;;;;;;;;;;5093959;28;20028;-28
2024/01/15 07:17:52;;;;;;;4.47;1.70;;;;;;;;;;5091696;28;20024;-28
2024/01/15 07:20:19;;;;;;;6.35;1.92;;;;;;;;;;5073652;28;20407;-28
2024/01/15 07:22:45;;;;;;;10.30;2.10;;;;;;;;;;5092283;28;20020;-28
2024/01/15 07:25:10;;;;;;;10.77;1.90;;;;;;;;;;5092194;28;20023;-27
2024/01/15 07:27:35;;;;;;;9.35;2.17;;;;;;;;;;5091848;28;20016;-28
2024/01/15 07:30:00;;;;;;;10.10;2.08;;;;;;;;;;5091879;28;20029;-28
2024/01/15 07:32:26;;;;;;;7.22;1.70;;;;;;;;;;5091812;28;20025;-27
2024/01/15 07:34:51;;;;;;;7.35;1.70;;;;;;;;;;5091573;28;20028;-27
2024/01/15 07:37:16;;;;;;;5.13;1.47;;;;;;;;;;5091618;28;20016;-27
2024/01/15 07:39:41;;;;;;;2.75;1.00;;;;;;;;;;5074408;28;20301;-28
2024/01/15 07:42:07;;;;;;;3.83;1.05;;;;;;;;;;5096179;28;20435;-27
2024/01/15 07:44:32;;;;;;;6.05;1.33;;;;;;;;;;5077333;28;20488;-27
2024/01/15 07:46:57;;;;;;;5.32;1.35;;;;;;;;;;5096197;28;20020;-27
2024/01/15 07:49:23;;;;;;;11.18;1.60;;;;;;;;;;5097819;28;20099;-27
2024/01/15 07:51:48;;;;;;;6.25;1.13;;;;;;;;;;5062701;28;20031;-27
2024/01/15 07:54:14;;;;;;;8.07;1.90;;;;;;;;;;5097438;28;20024;-35
2024/01/15 07:56:55;;;;;;;5.25;2.00;;;;;;;;;;5097830;28;20016;-28
2024/01/15 07:59:20;;;;;;;10.40;2.63;;;;;;;;;;5077951;28;20017;-28
2024/01/15 08:01:45;;;;;;;11.50;2.60;;;;;;;;;;5095938;28;20016;-28
2024/01/15 08:04:12;;;;;;;7.93;2.40;;;;;;;;;;5079195;28;20419;-27
2024/01/15 08:06:37;;;;;;;7.35;1.92;;;;;;;;;;5078915;28;20051;-27
2024/01/15 08:09:03;;;;;;;5.57;1.60;;;;;;;;;;5097135;28;20027;-28
2024/01/15 08:11:29;;;;;;;9.05;2.00;;;;;;;;;;5097311;28;20024;-28
2024/01/15 08:13:54;;;;;;;4.43;2.13;;;;;;;;;;5097337;28;20016;-27
2024/01/15 08:16:19;;;;;;;6.88;1.73;;;;;;;;;;5078814;28;20024;-27
2024/01/15 08:18:44;;;;;;;7.97;1.40;;;;;;;;;;5097026;28;20016;-27
2024/01/15 08:21:09;;;;;;;7.88;1.30;;;;;;;;;;5061932;28;20272;-28
2024/01/15 08:23:35;;;;;;;5.68;1.40;;;;;;;;;;5078660;28;20020;-27
2024/01/15 08:26:00;;;;;;;9.02;1.45;;;;;;;;;;5097088;28;20047;-27
2024/01/15 08:28:25;;;;;;;7.65;1.40;;;;;;;;;;5096983;28;20416;-28
2024/01/15 08:30:50;;;;;;;4.67;1.30;;;;;;;;;;5096890;28;20027;-27
2024/01/15 08:33:16;;;;;;;5.30;1.00;;;;;;;;;;5096658;28;20752;-27
2024/01/15 08:35:41;;;;;;;8.07;1.50;;;;;;;;;;5096973;28;20455;-27
2024/01/15 08:38:06;;;;;;;3.77;0.90;;;;;;;;;;5096791;28;20078;-27
2024/01/15 08:40:31;;;;;;;4.93;1.20;;;;;;;;;;5079063;28;20251;-27
2024/01/15 08:42:57;;;;;;;3.30;0.85;;;;;;;;;;5096572;28;20023;-27
2024/01/15 08:45:23;;;;;;;6.07;1.33;;;;;;;;;;5097031;28;20023;-28
2024/01/15 08:47:48;;;;;;;8.48;1.17;;;;;;;;;;5096715;28;20250;-28
2024/01/15 08:50:13;;;;;;;5.68;1.30;;;;;;;;;;5096791;28;20019;-28
2024/01/15 08:52:38;;;;;;;7.40;1.10;;;;;;;;;;5077053;28;20051;-29
2024/01/15 08:55:04;;;;;;;10.00;1.35;;;;;;;;;;5096368;28;20016;-28
2024/01/15 08:57:29;;;;;;;9.07;1.42;;;;;;;;;;5096146;28;20024;-28
2024/01/15 08:59:55;;;;;;;8.20;1.90;;;;;;;;;;5096494;28;20047;-29
2024/01/15 09:02:20;;;;;;;7.00;1.33;;;;;;;;;;5096169;28;20528;-28
2024/01/15 09:04:45;;;;;;;7.00;1.20;;;;;;;;;;5096363;28;20531;-29
2024/01/15 09:07:11;;;;;;;10.77;1.50;;;;;;;;;;5095930;28;20044;-29
2024/01/15 09:09:36;;;;;;;9.60;1.67;;;;;;;;;;5096055;28;20024;-29
2024/01/15 09:12:01;;;;;;;4.35;1.10;;;;;;;;;;5095925;28;20012;-28
2024/01/15 09:14:28;;;;;;;9.65;1.30;;;;;;;;;;5096157;28;20028;-27
2024/01/15 09:16:54;;;;;;;7.05;1.80;;;;;;;;;;5095989;28;20020;-27
2024/01/15 09:19:19;;;;;;;7.78;1.90;;;;;;;;;;5077700;28;20039;-27
2024/01/15 09:21:44;;;;;;;8.88;2.45;;;;;;;;;;5077914;28;20024;-27
2024/01/15 09:24:10;;;;;;;11.38;2.80;;;;;;;;;;5095730;28;20106;-27
2024/01/15 09:26:35;;;;;;;10.73;2.83;;;;;;;;;;5096303;28;20026;-27
2024/01/15 09:29:00;;;;;;;9.68;2.65;;;;;;;;;;5096190;28;20018;-27
2024/01/15 09:31:26;;;;;;;12.05;2.70;;;;;;;;;;5077451;28;20478;-27
2024/01/15 09:33:55;;;;;;;10.00;2.72;;;;;;;;;;5095521;28;20077;-28
2024/01/15 09:36:21;;;;;;;13.65;2.03;;;;;;;;;;5095649;28;20024;-28
2024/01/15 09:38:46;;;;;;;8.77;2.30;;;;;;;;;;5095409;28;20141;-28
2024/01/15 09:41:11;;;;;;;6.47;1.43;;;;;;;;;;5095378;28;20115;-28
2024/01/15 09:43:37;;;;;;;9.57;1.80;;;;;;;;;;5095258;28;20253;-28
2024/01/15 09:46:03;;;;;;;15.20;2.10;;;;;;;;;;5095247;28;20016;-28
2024/01/15 09:48:28;;;;;;;9.45;1.90;;;;;;;;;;5077092;28;20023;-28
2024/01/15 09:50:54;;;;;;;8.02;2.20;;;;;;;;;;5095625;28;20070;-28
2024/01/15 09:53:20;;;;;;;13.25;2.15;;;;;;;;;;5095078;28;20016;-28
2024/01/15 09:55:46;;;;;;;5.47;1.60;;;;;;;;;;5095267;28;20023;-28
2024/01/15 09:58:12;;;;;;;7.50;2.25;;;;;;;;;;5095260;28;20016;-28
2024/01/15 10:00:41;;;;;;;7.25;1.92;;;;;;;;;;5095233;28;20061;-28
2024/01/15 10:03:07;;;;;;;12.77;2.35;;;;;;;;;;5094682;28;20060;-28
2024/01/15 10:05:32;;;;;;;13.13;1.80;;;;;;;;;;5094790;28;20040;-28
2024/01/15 10:08:00;;;;;;;12.43;2.05;;;;;;;;;;5094511;28;20742;-28
2024/01/15 10:10:25;;;;;;;13.65;1.80;;;;;;;;;;5094698;28;20051;-28
2024/01/15 10:12:50;;;;;;;10.60;2.07;;;;;;;;;;5094747;28;20019;-28
2024/01/15 10:15:17;;;;;;;10.60;1.90;;;;;;;;;;5094624;28;20257;-28
2024/01/15 10:17:42;;;;;;;11.77;1.90;;;;;;;;;;5094589;28;20286;-28
2024/01/15 10:20:10;;;;;;;8.30;1.90;;;;;;;;;;5094733;28;20106;-28
2024/01/15 10:22:38;;;;;;;10.98;2.22;;;;;;;;;;5094981;28;20074;-28
2024/01/15 10:25:04;;;;;;;9.27;2.63;;;;;;;;;;5094691;28;20073;-28
2024/01/15 10:27:29;;;;;;;8.65;1.85;;;;;;;;;;5094375;28;20030;-28
2024/01/15 10:29:58;;;;;;;7.47;1.73;;;;;;;;;;5094334;28;20097;-28
2024/01/15 10:32:24;;;;;;;8.48;2.28;;;;;;;;;;5094627;28;20313;-33
2024/01/15 10:34:52;;;;;;;5.60;1.67;;;;;;;;;;5094537;28;20016;-29
2024/01/15 10:37:17;;;;;;;6.95;2.22;;;;;;;;;;5094179;28;20512;-28
2024/01/15 10:39:42;;;;;;;8.60;2.17;;;;;;;;;;5094255;28;20133;-29
2024/01/15 10:42:08;;;;;;;11.90;3.10;;;;;;;;;;5094388;28;20258;-28
2024/01/15 10:44:34;;;;;;;8.88;2.35;;;;;;;;;;5094417;28;20020;-28
2024/01/15 10:46:59;;;;;;;8.38;1.80;;;;;;;;;;5094273;28;20486;-28
2024/01/15 10:49:26;;;;;;;18.45;2.28;;;;;;;;;;5094292;28;20012;-28
2024/01/15 10:51:52;;;;;;;7.07;1.55;;;;;;;;;;5094214;28;20103;-28
2024/01/15 10:54:18;;;;;;;8.05;1.40;;;;;;;;;;5094476;28;20056;-28
2024/01/15 10:56:45;;;;;;;8.68;1.02;;;;;;;;;;5094280;28;20027;-28
2024/01/15 10:59:11;;;;;;;3.78;0.73;;;;;;;;;;5093953;28;20020;-28
2024/01/15 11:01:36;;;;;;;4.72;0.77;;;;;;;;;;5094103;28;20027;-28
2024/01/15 11:04:01;;;;;;;4.35;0.70;;;;;;;;;;5093780;28;20434;-28
2024/01/15 11:06:28;;;;;;;4.75;0.90;;;;;;;;;;5075599;28;20094;-28
2024/01/15 11:08:54;;;;;;;1.30;0.35;;;;;;;;;;5093890;28;20379;-28
2024/01/15 11:11:20;;;;;;;3.60;0.55;;;;;;;;;;5093467;28;20023;-28
2024/01/15 11:13:51;;;;;;;3.45;0.60;;;;;;;;;;5093809;28;20072;-28
2024/01/15 11:16:17;;;;;;;6.00;1.15;;;;;;;;;;5093674;28;20363;-28
2024/01/15 11:18:43;;;;;;;3.50;0.50;;;;;;;;;;5093516;28;20027;-27
2024/01/15 11:21:17;;;;;;;1.90;0.50;;;;;;;;;;5093617;28;20077;-27
2024/01/15 11:23:46;;;;;;;2.22;0.70;;;;;;;;;;5093605;28;20016;-27
2024/01/15 11:26:30;;;;;;;2.90;0.57;;;;;;;;;;5094154;28;20478;-28
2024/01/15 11:28:56;;;;;;;2.90;0.82;;;;;;;;;;5093569;28;20105;-27
2024/01/15 11:31:28;;;;;;;4.60;0.98;;;;;;;;;;5093797;28;20054;-27
2024/01/15 11:33:55;;;;;;;2.42;0.60;;;;;;;;;;5093563;28;20028;-27
2024/01/15 11:36:20;;;;;;;5.63;0.82;;;;;;;;;;5093725;28;20016;-27
2024/01/15 11:38:45;;;;;;;5.40;0.85;;;;;;;;;;5075471;28;20028;-30
2024/01/15 11:41:15;;;;;;;4.22;0.82;;;;;;;;;;5093958;28;20020;-27
2024/01/15 11:43:40;;;;;;;3.30;1.00;;;;;;;;;;5093684;28;20016;-27
2024/01/15 11:46:10;;;;;;;2.42;0.73;;;;;;;;;;5093480;28;20014;-27
2024/01/15 11:48:42;;;;;;;5.70;1.10;;;;;;;;;;5093422;28;20016;-27
2024/01/15 11:51:07;;;;;;;4.07;1.02;;;;;;;;;;5093339;28;20467;-27
2024/01/15 11:53:36;;;;;;;7.65;0.98;;;;;;;;;;5093355;28;20024;-27
2024/01/15 11:56:01;;;;;;;6.95;1.50;;;;;;;;;;5093815;28;20086;-27
2024/01/15 11:58:27;;;;;;;5.93;1.38;;;;;;;;;;5093238;28;20374;-27
2024/01/15 12:00:52;;;;;;;6.93;1.70;;;;;;;;;;5075225;28;20020;-27
2024/01/15 12:03:20;;;;;;;5.63;1.20;;;;;;;;;;5093833;28;20152;-27
2024/01/15 12:05:45;;;;;;;6.05;1.42;;;;;;;;;;5093118;28;20064;-28
2024/01/15 12:08:10;;;;;;;5.00;1.30;;;;;;;;;;5093519;28;20113;-28
2024/01/15 12:10:36;;;;;;;5.88;1.35;;;;;;;;;;5093442;28;20261;-28
2024/01/15 12:13:06;;;;;;;3.95;0.90;;;;;;;;;;5075101;28;20016;-28
2024/01/15 12:15:32;;;;;;;8.63;1.23;;;;;;;;;;5093198;28;20356;-28
2024/01/15 12:17:59;;;;;;;6.55;2.03;;;;;;;;;;5075420;28;20450;-28
2024/01/15 12:20:25;;;;;;;5.60;1.42;;;;;;;;;;5093174;28;20012;-28
2024/01/15 12:22:50;;;;;;;9.98;1.30;;;;;;;;;;5093089;28;20051;-28
2024/01/15 12:25:15;;;;;;;5.00;1.10;;;;;;;;;;5093388;28;20054;-28
2024/01/15 12:27:41;;;;;;;5.15;1.02;;;;;;;;;;5097097;28;20016;-27
2024/01/15 12:30:07;;;;;;;6.93;1.30;;;;;;;;;;5097115;28;20409;-28
2024/01/15 12:32:32;;;;;;;4.85;1.00;;;;;;;;;;5097067;28;20125;-28
2024/01/15 12:34:58;;;;;;;8.35;1.17;;;;;;;;;;5078480;28;20423;-28
2024/01/15 12:37:23;;;;;;;9.10;1.45;;;;;;;;;;5096907;28;20035;-28
2024/01/15 12:39:49;;;;;;;7.40;1.60;;;;;;;;;;5096890;28;20019;-28
2024/01/15 12:42:14;;;;;;;5.38;1.23;;;;;;;;;;5096639;28;20421;-28
2024/01/15 12:44:39;;;;;;;8.18;1.70;;;;;;;;;;5096696;28;20020;-27
2024/01/15 12:47:05;;;;;;;5.47;1.52;;;;;;;;;;5097100;28;20024;-27
2024/01/15 12:49:30;;;;;;;5.20;1.42;;;;;;;;;;5096465;28;20069;-28
2024/01/15 12:51:58;;;;;;;8.23;1.92;;;;;;;;;;5096469;28;20024;-27
2024/01/15 12:54:24;;;;;;;5.30;1.40;;;;;;;;;;5096817;28;20058;-27
2024/01/15 12:56:49;;;;;;;6.40;1.40;;;;;;;;;;5096416;28;20044;-28
2024/01/15 12:59:15;;;;;;;4.55;1.30;;;;;;;;;;5096190;28;20027;-27
2024/01/15 13:01:41;;;;;;;8.63;1.30;;;;;;;;;;5096091;28;20069;-27
2024/01/15 13:04:08;;;;;;;10.70;1.60;;;;;;;;;;5096311;28;20286;-28
2024/01/15 13:06:33;;;;;;;6.22;1.70;;;;;;;;;;5095740;28;20038;-27
2024/01/15 13:08:58;;;;;;;10.07;1.60;;;;;;;;;;5096591;28;20103;-28
2024/01/15 13:11:24;;;;;;;6.40;1.70;;;;;;;;;;5096369;28;20016;-28
2024/01/15 13:13:49;;;;;;;10.73;1.80;;;;;;;;;;5095863;28;20669;-28
2024/01/15 13:16:14;;;;;;;8.13;1.63;;;;;;;;;;5096183;28;20256;-28
2024/01/15 13:18:39;;;;;;;6.97;1.80;;;;;;;;;;5096248;28;20274;-28
2024/01/15 13:21:04;;;;;;;6.80;1.65;;;;;;;;;;5096286;28;20020;-28
2024/01/15 13:23:30;;;;;;;9.43;2.15;;;;;;;;;;5095902;28;20008;-28
2024/01/15 13:25:55;;;;;;;9.13;1.83;;;;;;;;;;5095646;28;20459;-28
2024/01/15 13:28:21;;;;;;;9.93;1.90;;;;;;;;;;5096102;28;20047;-28
2024/01/15 13:30:46;;;;;;;9.52;2.08;;;;;;;;;;5095431;28;20254;-28
2024/01/15 13:33:11;;;;;;;7.95;1.80;;;;;;;;;;5095743;28;20027;-28
2024/01/15 13:35:36;;;;;;;8.90;1.67;;;;;;;;;;5095442;28;20118;-27
2024/01/15 13:38:02;;;;;;;13.63;2.05;;;;;;;;;;5076391;28;20282;-28
2024/01/15 13:40:27;;;;;;;8.55;1.88;;;;;;;;;;5095339;28;20387;-28
2024/01/15 13:42:52;;;;;;;9.43;1.50;;;;;;;;;;5095488;28;20107;-28
2024/01/15 13:45:17;;;;;;;7.28;1.50;;;;;;;;;;5095756;28;20621;-27
2024/01/15 13:47:43;;;;;;;6.22;1.33;;;;;;;;;;5095382;28;20020;-27
2024/01/15 13:50:09;;;;;;;11.10;2.17;;;;;;;;;;5095052;28;20488;-28
2024/01/15 13:52:34;;;;;;;11.98;1.70;;;;;;;;;;5095373;28;20026;-28
2024/01/15 13:54:59;;;;;;;8.35;1.25;;;;;;;;;;5095613;28;20024;-28
2024/01/15 13:57:24;;;;;;;9.77;1.27;;;;;;;;;;5094968;28;20482;-28
2024/01/15 13:59:50;;;;;;;11.00;1.50;;;;;;;;;;5095061;28;20278;-28
2024/01/15 14:02:15;;;;;;;7.45;1.50;;;;;;;;;;5095225;28;20257;-28
2024/01/15 14:04:41;;;;;;;11.27;1.70;;;;;;;;;;5094886;28;20016;-28
2024/01/15 14:07:06;;;;;;;8.43;1.55;;;;;;;;;;5094691;28;20036;-27
2024/01/15 14:09:31;;;;;;;11.70;1.75;;;;;;;;;;5094745;28;20028;-28
2024/01/15 14:11:57;;;;;;;8.27;1.63;;;;;;;;;;5094625;28;20032;-28
2024/01/15 14:14:22;;;;;;;13.68;2.65;;;;;;;;;;5094978;28;20269;-27
2024/01/15 14:16:48;;;;;;;12.60;1.58;;;;;;;;;;5094811;28;20031;-28
2024/01/15 14:19:13;;;;;;;9.05;1.73;;;;;;;;;;5095151;28;20016;-28
2024/01/15 14:21:39;;;;;;;8.45;1.70;;;;;;;;;;5094543;28;20020;-28
2024/01/15 14:24:04;;;;;;;11.10;2.03;;;;;;;;;;5094518;28;20019;-27
2024/01/15 14:26:29;;;;;;;9.68;2.00;;;;;;;;;;5094990;28;20016;-28
2024/01/15 14:28:54;;;;;;;9.27;1.67;;;;;;;;;;5094314;28;20043;-28
2024/01/15 14:31:20;;;;;;;12.53;2.33;;;;;;;;;;5094893;28;20254;-28